createdAt,value
2022-12-13T00:02:01.014Z,94.82
2022-12-13T00:07:49.120Z,95.01
2022-12-13T00:13:23.502Z,95.29
2022-12-13T00:19:16.962Z,94.43
2022-12-13T00:22:04.995Z,94.18
2022-12-13T00:27:44.313Z,96.08
2022-12-13T00:33:16.170Z,95.31
2022-12-13T00:38:51.694Z,95.79
2022-12-13T00:41:43.625Z,96.00
2022-12-13T00:44:32.082Z,95.98
2022-12-13T00:50:12.990Z,93.84
2022-12-13T00:55:46.265Z,95.53
2022-12-13T01:01:24.836Z,95.85
2022-12-13T01:04:13.527Z,95.81
2022-12-13T01:07:02.170Z,95.84
2022-12-13T01:12:32.355Z,95.08
2022-12-13T01:18:10.559Z,95.14
2022-12-13T01:23:57.164Z,96.60
2022-12-13T01:29:27.015Z,97.07
2022-12-13T01:35:04.336Z,96.93
2022-12-13T01:40:38.528Z,96.66
2022-12-13T01:46:06.643Z,96.73
2022-12-13T01:51:40.509Z,96.30
2022-12-13T01:57:20.660Z,94.92
2022-12-13T02:00:14.176Z,95.07
2022-12-13T02:05:49.204Z,94.49
2022-12-13T02:14:09.831Z,92.57
2022-12-13T02:20:21.736Z,92.98
2022-12-13T02:23:20.895Z,93.17
2022-12-13T02:26:27.542Z,94.44
2022-12-13T02:32:13.791Z,96.08
2022-12-13T02:35:06.640Z,95.95
2022-12-13T02:40:37.469Z,96.22
2022-12-13T02:46:12.314Z,94.45
2022-12-13T02:51:42.908Z,94.04
2022-12-13T02:54:31.861Z,93.68
2022-12-13T03:00:22.038Z,95.07
2022-12-13T03:03:18.809Z,94.05
2022-12-13T03:06:34.157Z,93.87
2022-12-13T03:12:42.518Z,93.82
2022-12-13T03:18:21.126Z,92.38
2022-12-13T03:23:54.242Z,92.59
2022-12-13T03:26:43.031Z,92.50
2022-12-13T03:32:31.166Z,92.54
2022-12-13T03:40:58.882Z,93.68
2022-12-13T03:46:33.125Z,93.44
2022-12-13T03:52:02.337Z,93.85
2022-12-13T03:57:36.046Z,93.38
2022-12-13T04:03:13.314Z,94.26
2022-12-13T04:08:54.103Z,95.16
2022-12-13T04:14:23.198Z,95.53
2022-12-13T04:17:12.628Z,95.56
2022-12-13T04:22:42.113Z,93.80
2022-12-13T04:28:25.210Z,92.78
2022-12-13T04:33:58.149Z,93.71
2022-12-13T04:39:33.912Z,93.74
2022-12-13T04:45:03.719Z,93.47
2022-12-13T04:50:38.217Z,92.91
2022-12-13T04:59:14.028Z,91.23
2022-12-13T05:04:40.832Z,91.22
2022-12-13T05:10:32.123Z,90.17
2022-12-13T05:18:51.293Z,89.20
2022-12-13T05:24:31.459Z,89.85
2022-12-13T05:27:24.908Z,89.99
2022-12-13T05:33:01.815Z,89.90
2022-12-13T05:35:52.894Z,90.68
2022-12-13T05:41:33.311Z,91.89
2022-12-13T05:47:02.973Z,91.60
2022-12-13T05:52:38.016Z,91.53
2022-12-13T05:58:13.283Z,91.64
2022-12-13T06:03:48.070Z,91.38
2022-12-13T06:09:25.140Z,89.71
2022-12-13T06:15:01.694Z,90.64
2022-12-13T06:17:50.523Z,90.82
2022-12-13T06:23:24.430Z,91.38
2022-12-13T06:28:54.327Z,90.98
2022-12-13T06:34:26.366Z,89.43
2022-12-13T06:40:01.051Z,89.02
2022-12-13T06:45:31.675Z,87.33
2022-12-13T06:51:03.318Z,88.88
2022-12-13T06:56:38.774Z,85.42
2022-12-13T06:59:27.236Z,86.28
2022-12-13T07:04:58.815Z,90.19
2022-12-13T07:07:47.651Z,90.41
2022-12-13T07:13:26.976Z,90.26
2022-12-13T07:19:00.746Z,88.08
2022-12-13T07:24:29.697Z,87.74
2022-12-13T07:30:15.049Z,88.97
2022-12-13T07:35:55.707Z,88.24
2022-12-13T07:41:32.644Z,87.26
2022-12-13T07:47:06.930Z,86.04
2022-12-13T07:52:36.679Z,83.78
2022-12-13T07:55:33.605Z,83.28
2022-12-13T08:01:00.646Z,82.48
2022-12-13T08:06:28.970Z,81.92
2022-12-13T08:12:08.606Z,80.95
2022-12-13T08:17:42.989Z,83.75
2022-12-13T08:26:02.556Z,84.18
2022-12-13T08:31:38.949Z,81.53
2022-12-13T08:34:27.256Z,81.86
2022-12-13T08:40:05.574Z,79.92
2022-12-13T08:51:24.636Z,79.25
2022-12-13T08:56:54.281Z,80.22
2022-12-13T08:59:42.436Z,77.85
2022-12-13T09:05:34.061Z,77.98
2022-12-13T09:11:00.678Z,75.10
2022-12-13T09:16:35.916Z,76.67
2022-12-13T09:22:33.168Z,75.39
2022-12-13T09:25:24.282Z,75.35
2022-12-13T09:30:49.773Z,77.78
2022-12-13T09:36:21.808Z,78.69
2022-12-13T09:44:43.774Z,77.54
2022-12-13T09:50:15.045Z,76.63
2022-12-13T10:01:22.543Z,76.30
2022-12-13T10:07:03.584Z,78.78
2022-12-13T10:12:44.586Z,75.91
2022-12-13T10:18:16.111Z,76.80
2022-12-13T10:24:23.159Z,78.31
2022-12-13T10:29:22.443Z,79.40
2022-12-13T10:32:14.949Z,80.74
2022-12-13T10:38:31.572Z,80.48
2022-12-13T10:54:48.342Z,76.69
2022-12-13T11:00:44.488Z,77.03
2022-12-13T11:09:02.927Z,76.46
2022-12-13T11:17:24.406Z,77.02
2022-12-13T11:23:04.942Z,79.04
2022-12-13T11:31:24.898Z,82.20
2022-12-13T11:40:01.653Z,78.74
2022-12-13T11:45:32.460Z,75.60
2022-12-13T11:51:13.212Z,78.38
2022-12-13T11:54:04.514Z,79.49
2022-12-13T11:57:00.717Z,78.01
2022-12-13T12:05:31.764Z,78.60
2022-12-13T12:11:13.433Z,76.78
2022-12-13T12:16:48.288Z,78.13
2022-12-13T12:22:24.220Z,75.94
2022-12-13T12:28:13.291Z,76.05
2022-12-13T12:33:52.315Z,75.39
2022-12-13T13:13:12.594Z,79.10
2022-12-13T13:15:59.318Z,78.97
2022-12-13T13:36:52.692Z,78.72
2022-12-13T13:43:21.502Z,79.02
2022-12-13T13:46:13.774Z,78.19
2022-12-13T13:52:24.456Z,80.09
2022-12-13T13:55:37.378Z,80.12
2022-12-13T14:05:23.598Z,79.50
2022-12-13T14:33:31.981Z,83.53
2022-12-13T14:39:24.746Z,84.33
2022-12-13T14:45:22.124Z,84.65
2022-12-13T14:48:28.474Z,84.41
2022-12-13T14:59:18.788Z,88.12
2022-12-13T15:07:49.274Z,86.68
2022-12-13T15:10:40.695Z,87.54
2022-12-13T15:16:11.895Z,85.71
2022-12-13T15:22:01.717Z,87.50
2022-12-13T15:27:34.626Z,87.01
2022-12-13T15:39:02.912Z,86.17
2022-12-13T15:44:40.533Z,84.74
2022-12-13T15:50:36.163Z,86.40
2022-12-13T15:59:29.248Z,83.72
2022-12-13T16:05:09.394Z,85.24
2022-12-13T16:10:49.733Z,87.32
2022-12-13T16:16:28.326Z,85.22
2022-12-13T16:27:32.719Z,86.09
2022-12-13T16:33:28.638Z,87.65
2022-12-13T16:36:16.951Z,88.37
2022-12-13T16:41:54.528Z,90.03
2022-12-13T16:44:43.266Z,91.12
2022-12-13T16:47:41.859Z,89.77
2022-12-13T16:50:43.046Z,91.06
2022-12-13T16:53:31.589Z,92.23
2022-12-13T16:59:10.454Z,91.23
2022-12-13T17:04:50.396Z,92.96
2022-12-13T17:07:38.822Z,91.35
2022-12-13T17:13:10.841Z,91.37
2022-12-13T17:18:51.880Z,92.41
2022-12-13T17:24:26.287Z,92.69
2022-12-13T17:27:14.543Z,92.12
2022-12-13T17:30:08.256Z,92.82
2022-12-13T17:35:51.591Z,91.75
2022-12-13T17:42:30.035Z,90.78
2022-12-13T17:48:01.287Z,92.23
2022-12-13T17:56:39.440Z,90.87
2022-12-13T17:59:28.163Z,89.30
2022-12-13T18:05:17.721Z,90.08
2022-12-13T18:13:34.233Z,89.87
2022-12-13T18:19:09.860Z,87.72
2022-12-13T18:27:38.107Z,88.65
2022-12-13T18:30:28.006Z,88.79
2022-12-13T18:33:17.008Z,88.44
2022-12-13T18:38:55.403Z,87.94
2022-12-13T18:44:32.376Z,88.24
2022-12-13T18:50:04.537Z,87.59
2022-12-13T18:52:52.986Z,88.02
2022-12-13T18:58:27.455Z,88.93
2022-12-13T19:04:03.178Z,89.55
2022-12-13T19:06:52.950Z,89.46
2022-12-13T19:12:31.844Z,87.73
2022-12-13T19:18:11.305Z,87.86
2022-12-13T19:23:42.497Z,86.92
2022-12-13T19:29:25.982Z,88.82
2022-12-13T19:35:21.911Z,88.00
2022-12-13T19:38:24.748Z,87.93
2022-12-13T19:41:14.795Z,88.27
2022-12-13T19:44:05.085Z,87.24
2022-12-13T19:53:00.317Z,86.16
2022-12-13T19:58:59.301Z,84.80
2022-12-13T20:07:23.793Z,88.27
2022-12-13T20:10:12.793Z,88.04
2022-12-13T20:15:51.751Z,87.44
2022-12-13T20:22:30.017Z,87.90
2022-12-13T20:30:50.343Z,87.36
2022-12-13T20:36:27.093Z,87.60
2022-12-13T20:39:15.669Z,87.85
2022-12-13T20:44:45.749Z,89.19
2022-12-13T20:47:38.029Z,88.24
2022-12-13T20:56:02.023Z,88.81
2022-12-13T20:58:52.708Z,88.41
2022-12-13T21:04:23.561Z,85.96
2022-12-13T21:10:01.946Z,86.85
2022-12-13T21:15:39.525Z,85.72
2022-12-13T21:18:29.388Z,86.84
2022-12-13T21:21:18.758Z,87.59
2022-12-13T21:24:08.206Z,86.19
2022-12-13T21:29:41.457Z,84.72
2022-12-13T21:35:43.975Z,86.03
2022-12-13T21:38:32.703Z,86.88
2022-12-13T21:52:34.456Z,86.88
2022-12-13T21:58:33.280Z,86.86
2022-12-13T22:04:12.022Z,87.75
2022-12-13T22:12:43.778Z,86.26
2022-12-13T22:18:21.143Z,85.77
2022-12-13T22:21:09.269Z,86.53
2022-12-13T22:23:58.356Z,86.49
2022-12-13T22:29:35.742Z,86.65
2022-12-13T22:35:08.487Z,86.13
2022-12-13T22:38:01.379Z,88.16
2022-12-13T22:43:37.346Z,87.86
2022-12-13T22:49:13.660Z,88.17
2022-12-13T22:54:49.777Z,86.85
2022-12-13T23:00:17.080Z,87.72
2022-12-13T23:06:08.944Z,89.38
2022-12-13T23:12:00.939Z,89.63
2022-12-13T23:17:33.363Z,90.56
2022-12-13T23:23:21.437Z,90.39
2022-12-13T23:26:14.402Z,90.47
2022-12-13T23:31:48.963Z,89.04
2022-12-13T23:34:35.883Z,88.72
2022-12-13T23:40:13.609Z,89.15
2022-12-13T23:45:45.184Z,89.04
2022-12-13T23:51:18.627Z,89.28
2022-12-13T23:56:54.059Z,87.39
